METAR Data
IDs: Format: Raw Decoded Include TAF

Data at: 0920 UTC 18 Jan 2019

PAHY 180756Z AUTO 00000KT 5SM BR OVC075 02/01 A2946 RMK AO2 SLP077 T00170011 400441006 FZRANO $
PAHY 180656Z AUTO 00000KT 5SM BR BKN100 02/01 A2945 RMK AO2 SLP074 T00170006 FZRANO $
PAHY 180642Z AUTO 00000KT 8SM BKN100 01/01 A2945 RMK AO2 FZRANO $
PAHY 180635Z AUTO 00000KT 2 1/2SM BR BKN100 01/01 A2945 RMK AO2 FZRANO $
PAHY 180556Z AUTO 00000KT 5SM BR SCT100 02/01 A2945 RMK AO2 SLP074 T00170011 10039 20011 53002 FZRANO $
PAHY 180456Z AUTO 00000KT 10SM CLR 01/01 A2945 RMK AO2 SLP071 T00110006 FZRANO $
PAHY 180356Z AUTO 00000KT 6SM BR CLR 01/00 A2945 RMK AO2 SLP071 T00110000 FZRANO $
PAHY 180256Z AUTO 00000KT 3SM BR CLR 02/01 A2945 RMK AO2 SLP072 T00170011 58001 FZRANO $
PAHY 180156Z AUTO 00000KT 10SM OVC120 02/01 A2945 RMK AO2 SLP074 T00170011 FZRANO $
PAHY 180056Z AUTO 00000KT 10SM CLR 03/02 A2945 RMK AO2 SLP073 T00280022 $
PAHY 172356Z AUTO 00000KT 10SM CLR 04/02 A2945 RMK AO2 SLP074 T00390022 10044 20006 58007 $
PAHY 172256Z AUTO 00000KT 10SM CLR 04/02 A2946 RMK AO2 SLP076 T00390017 $
PAHY 172156Z AUTO 00000KT 10SM CLR 04/03 A2947 RMK AO2 SLP079 T00390028 $
PAHY 172056Z AUTO 28003KT 10SM CLR 03/02 A2948 RMK AO2 SLP081 T00280017 50002 $
PAHY 172020Z AUTO 00000KT 7SM CLR 03/02 A2948 RMK AO2 $
PAHY 172011Z AUTO 00000KT 2SM BR CLR 03/02 A2948 RMK AO2 VIS 1V5 $
PAHY 171856Z AUTO 00000KT 7SM CLR 01/01 A2948 RMK AO2 SLP083 T00110011 FZRANO $
PAHY 171756Z AUTO 00000KT 6SM BR CLR 01/00 A2947 RMK AO2 SLP079 T00060000 10011 20000 56001 FZRANO $
PAHY 171656Z AUTO 33003KT 8SM CLR 01/00 A2947 RMK AO2 SLP079 T00060000 FZRANO $
PAHY 171456Z AUTO 00000KT 6SM BR CLR 00/00 A2947 RMK AO2 SLP079 T00000000 57021 FZRANO $
PAHY 171256Z AUTO 33004KT 10SM CLR 01/01 A2951 RMK AO2 SLP094 T00060006 FZRANO $
PAHY 171156Z AUTO 30003KT 9SM CLR 00/00 A2953 RMK AO2 SLP101 70003 T00000000 10006 21006 56020 FZRANO $
PAHY 171056Z AUTO VRB03KT 10SM CLR 01/01 A2955 RMK AO2 SLP107 T00060006 FZRANO $
PAHY 171013Z AUTO 29004KT 8SM SCT001 00/00 A2957 RMK AO2 FZRANO $
PAHY 171000Z AUTO 31003KT 3SM BR BKN001 M01/M01 A2957 RMK AO2 FZRANO $
PAHY 170958Z AUTO 30003KT 1 1/2SM BR BKN001 M01/M01 A2957 RMK AO2 VIS 1/2V5 FZRANO $
PAHY 170956Z AUTO 31003KT 3/4SM BR OVC001 M01/M01 A2957 RMK AO2 VIS 1/4V5 SLP114 T10061006 FZRANO RVRNO $
PAHY 170856Z AUTO 00000KT 1/4SM FZFG OVC001 M01/M01 A2959 RMK AO2 SLP121 T10061006 58016 FZRANO RVRNO $
PAHY 170849Z AUTO 00000KT 1/4SM FZFG OVC001 M01/M01 A2960 RMK AO2 FZRANO RVRNO $
PAHY 170842Z AUTO 00000KT 3/4SM BR BKN001 M01/M01 A2960 RMK AO2 FZRANO RVRNO $
PAHY 170838Z AUTO 00000KT 1 1/4SM BR BKN001 M01/M01 A2960 RMK AO2 VIS 1/2V2 1/2 FZRANO $
PAHY 170835Z AUTO 00000KT 3/4SM BR BKN001 M01/M01 A2960 RMK AO2 VIS 1/4V2 1/2 FZRANO RVRNO $
PAHY 170829Z AUTO 00000KT 1/4SM FZFG OVC001 M01/M01 A2961 RMK AO2 FZRANO RVRNO $
PAHY 170822Z AUTO 00000KT 1/2SM FZFG OVC001 M01/M01 A2961 RMK AO2 FZRANO RVRNO $
PAHY 170752Z AUTO 00000KT 1/2SM FG OVC001 00/00 A2962 RMK AO2 400331006 FZRANO RVRNO $
PAHY 170745Z AUTO 00000KT 3/4SM BR BKN001 00/00 A2962 RMK AO2 FZRANO RVRNO $
PAHY 170723Z AUTO 00000KT 1/4SM FG OVC001 00/00 A2963 RMK AO2 FZRANO RVRNO $
PAHY 170716Z AUTO 00000KT 1/2SM FG OVC001 00/00 A2964 RMK AO2 FZRANO RVRNO $
PAHY 170656Z AUTO 34003KT 1/4SM FG OVC001 00/00 A2964 RMK AO2 SLP137 T00000000 FZRANO RVRNO $
PAHY 170602Z AUTO 00000KT 1/4SM FG BKN001 01/01 A2965 RMK AO2 FZRANO RVRNO $
PAHY 170556Z AUTO 00000KT 3/4SM BR BKN001 01/01 A2965 RMK AO2 SLP141 T00060006 10017 21006 50000 FZRANO RVRNO $
PAHY 170553Z AUTO 00000KT 1SM BR BKN001 01/01 A2965 RMK AO2 FZRANO RVRNO $
PAHY 170547Z AUTO 09004KT 2 1/2SM BR FEW001 00/00 A2965 RMK AO2 FZRANO $
PAHY 170520Z AUTO 00000KT 3SM BR CLR 00/M01 A2965 RMK AO2 FZRANO $
PAHY 170506Z AUTO 33003KT 1 3/4SM BR CLR 00/00 A2965 RMK AO2 FZRANO $
PAHY 170456Z AUTO 00000KT 6SM BR CLR 01/00 A2965 RMK AO2 SLP141 T00060000 FZRANO $
PAHY 170325Z AUTO 00000KT 9SM SCT002 01/01 A2965 RMK AO2 FZRANO $
PAHY 170256Z AUTO 00000KT 4SM BR CLR 01/01 A2965 RMK AO2 SLP141 T00110011 56011 FZRANO $
PAHY 170241Z AUTO 00000KT 1 3/4SM BR CLR 01/01 A2966 RMK AO2 FZRANO $
PAHY 170234Z AUTO 00000KT 3SM BR CLR 01/01 A2966 RMK AO2 FZRANO $
PAHY 170221Z AUTO 00000KT 1 1/4SM BR CLR 01/01 A2966 RMK AO2 FZRANO $
PAHY 170204Z AUTO 00000KT 2 1/2SM BR CLR 01/01 A2967 RMK AO2 FZRANO $
PAHY 170156Z AUTO 00000KT 4SM BR CLR 01/01 A2967 RMK AO2 SLP147 T00110011 FZRANO $
PAHY 170142Z AUTO 00000KT 4SM BR CLR 01/01 A2967 RMK AO2 FZRANO $
PAHY 170120Z AUTO 00000KT 3SM BR CLR 02/02 A2968 RMK AO2 FZRANO $
PAHY 170056Z AUTO 00000KT 2SM BR CLR 02/02 A2968 RMK AO2 VIS 3/4V5 SLP152 T00170017 FZRANO $
PAHY 170045Z AUTO 00000KT 1 3/4SM BR CLR 02/02 A2968 RMK AO2 VIS 3/4V4 FZRANO $
PAHY 170023Z AUTO 00000KT 4SM BR CLR 02/02 A2969 RMK AO2 FZRANO $
PAHY 170012Z AUTO 00000KT 2 1/2SM BR CLR 02/02 A2969 RMK AO2 FZRANO $
PAHY 162356Z AUTO 00000KT 1 3/4SM BR CLR 02/02 A2969 RMK AO2 SLP156 60003 T00170017 10033 21006 56008 FZRANO $
PAHY 162256Z AUTO 00000KT 6SM BR CLR 02/02 A2969 RMK AO2 SLP156 T00220022 FZRANO $
PAHY 162156Z AUTO 00000KT 10SM FEW100 02/02 A2970 RMK AO2 SLP160 T00220022 FZRANO $